createdAt,value
2019-02-09T00:00:36.360Z,0.00
2019-02-09T00:01:37.116Z,0.00
2019-02-09T00:02:36.227Z,0.00
2019-02-09T00:03:36.678Z,0.00
2019-02-09T00:04:36.239Z,0.00
2019-02-09T00:05:36.622Z,0.00
2019-02-09T00:06:36.144Z,0.00
2019-02-09T00:07:36.731Z,0.00
2019-02-09T00:08:36.622Z,0.00
2019-02-09T00:09:36.067Z,0.00
2019-02-09T00:10:36.196Z,0.00
2019-02-09T00:11:36.233Z,0.00
2019-02-09T00:12:36.180Z,0.00
2019-02-09T00:13:36.063Z,0.00
2019-02-09T00:14:36.006Z,0.00
2019-02-09T00:15:36.124Z,0.00
2019-02-09T00:16:36.054Z,0.00
2019-02-09T00:17:35.998Z,0.00
2019-02-09T00:18:36.624Z,0.00
2019-02-09T00:19:36.027Z,0.00
2019-02-09T00:20:35.959Z,0.00
2019-02-09T00:21:35.960Z,0.00
2019-02-09T00:22:36.038Z,0.00
2019-02-09T00:23:35.901Z,0.00
2019-02-09T00:24:36.003Z,0.00
2019-02-09T00:25:36.837Z,0.00
2019-02-09T00:26:38.960Z,0.00
2019-02-09T00:27:35.983Z,0.00
2019-02-09T00:28:35.908Z,0.00
2019-02-09T00:29:35.842Z,0.00
2019-02-09T00:30:35.859Z,0.00
2019-02-09T00:31:37.138Z,0.00
2019-02-09T00:32:35.870Z,0.00
2019-02-09T00:33:35.875Z,0.00
2019-02-09T00:34:35.933Z,0.00
2019-02-09T00:35:35.925Z,0.00
2019-02-09T00:36:36.644Z,0.00
2019-02-09T00:37:36.804Z,0.00
2019-02-09T00:38:35.772Z,0.00
2019-02-09T00:39:35.812Z,0.00
2019-02-09T00:40:35.794Z,0.00
2019-02-09T00:41:35.864Z,0.00
2019-02-09T00:42:35.760Z,0.00
2019-02-09T00:43:35.732Z,0.00
2019-02-09T00:44:35.738Z,0.00
2019-02-09T00:45:35.758Z,0.00
2019-02-09T00:46:35.775Z,0.00
2019-02-09T00:47:36.624Z,0.00
2019-02-09T00:48:36.628Z,0.00
2019-02-09T00:49:35.622Z,0.00
2019-02-09T00:50:35.620Z,0.00
2019-02-09T00:51:35.645Z,0.00
2019-02-09T00:52:35.627Z,0.00
2019-02-09T00:53:35.643Z,0.00
2019-02-09T00:54:35.572Z,0.00
2019-02-09T00:55:35.752Z,0.00
2019-02-09T00:56:35.550Z,0.00
2019-02-09T00:57:35.963Z,0.00
2019-02-09T00:58:35.609Z,0.00
2019-02-09T00:59:36.130Z,0.00
2019-02-09T01:00:35.708Z,0.00
2019-02-09T01:01:35.596Z,0.00
2019-02-09T01:02:36.714Z,0.00
2019-02-09T01:03:35.631Z,0.00
2019-02-09T01:04:35.561Z,0.00
2019-02-09T01:05:35.566Z,0.00
2019-02-09T01:06:36.213Z,0.00
2019-02-09T01:07:35.710Z,0.00
2019-02-09T01:08:35.624Z,0.00
2019-02-09T01:09:35.519Z,0.00
2019-02-09T01:10:35.441Z,0.00
2019-02-09T01:11:35.399Z,0.00
2019-02-09T01:12:35.386Z,0.00
2019-02-09T01:13:35.370Z,0.00
2019-02-09T01:14:35.405Z,0.00
2019-02-09T01:15:35.494Z,0.00
2019-02-09T01:16:35.677Z,0.00
2019-02-09T01:17:35.363Z,0.00
2019-02-09T01:18:35.362Z,0.00
2019-02-09T01:19:35.327Z,0.00
2019-02-09T01:20:35.533Z,0.00
2019-02-09T01:21:35.308Z,0.00
2019-02-09T01:22:35.269Z,0.00
2019-02-09T01:23:35.270Z,0.00
2019-02-09T01:24:35.307Z,0.00
2019-02-09T01:25:35.318Z,0.00
2019-02-09T01:26:35.219Z,0.00
2019-02-09T01:27:35.218Z,0.00
2019-02-09T01:28:35.233Z,0.00
2019-02-09T01:29:35.202Z,0.00
2019-02-09T01:30:35.240Z,0.00
2019-02-09T01:31:35.252Z,0.00
2019-02-09T01:32:35.215Z,0.00
2019-02-09T01:33:35.172Z,0.00
2019-02-09T01:34:35.152Z,0.00
2019-02-09T01:35:35.186Z,0.00
2019-02-09T01:36:35.136Z,0.00
2019-02-09T01:37:35.136Z,0.00
2019-02-09T01:38:35.104Z,0.00
2019-02-09T01:39:35.097Z,0.00
2019-02-09T01:40:35.080Z,0.00
2019-02-09T01:41:35.069Z,0.00
2019-02-09T01:42:35.146Z,0.00
2019-02-09T01:43:35.139Z,0.00
2019-02-09T01:44:35.041Z,0.00
2019-02-09T01:45:35.039Z,0.00
2019-02-09T01:46:35.028Z,0.00
2019-02-09T01:47:35.039Z,0.00
2019-02-09T01:48:34.989Z,0.00
2019-02-09T01:49:34.977Z,0.00
2019-02-09T01:50:34.984Z,0.00
2019-02-09T01:51:34.983Z,0.00
2019-02-09T01:52:35.019Z,0.00
2019-02-09T01:53:34.946Z,0.00
2019-02-09T01:54:34.940Z,0.00
2019-02-09T01:55:34.970Z,0.00
2019-02-09T01:56:34.914Z,0.00
2019-02-09T01:57:34.969Z,0.00
2019-02-09T01:58:35.642Z,0.00
2019-02-09T01:59:35.287Z,0.00
2019-02-09T02:00:34.927Z,0.00
2019-02-09T02:01:34.855Z,0.00
2019-02-09T02:02:34.889Z,0.00
2019-02-09T02:03:34.891Z,0.00
2019-02-09T02:04:34.826Z,0.00
2019-02-09T02:05:34.836Z,0.00
2019-02-09T02:06:34.876Z,0.00
2019-02-09T02:07:34.785Z,0.00
2019-02-09T02:08:34.800Z,0.00
2019-02-09T02:09:34.791Z,0.00
2019-02-09T02:10:34.749Z,0.00
2019-02-09T02:11:34.766Z,0.00
2019-02-09T02:12:34.773Z,0.00
2019-02-09T02:13:34.801Z,0.00
2019-02-09T02:14:34.806Z,0.00
2019-02-09T02:15:34.745Z,0.00
2019-02-09T02:16:34.692Z,0.00
2019-02-09T02:17:34.725Z,0.00
2019-02-09T02:18:34.711Z,0.00
2019-02-09T02:19:34.657Z,0.00
2019-02-09T02:20:34.677Z,0.00
2019-02-09T02:21:34.638Z,0.00
2019-02-09T02:22:34.643Z,0.00
2019-02-09T02:23:34.680Z,0.00
2019-02-09T02:24:34.601Z,0.00
2019-02-09T02:25:34.651Z,0.00
2019-02-09T02:26:34.597Z,0.00
2019-02-09T02:27:34.585Z,0.00
2019-02-09T02:28:34.623Z,0.00
2019-02-09T02:29:34.584Z,0.00
2019-02-09T02:30:34.571Z,0.00
2019-02-09T02:31:34.558Z,0.00
2019-02-09T02:32:34.537Z,0.00
2019-02-09T02:33:34.572Z,0.00
2019-02-09T02:34:34.559Z,0.00
2019-02-09T02:35:34.513Z,0.00
2019-02-09T02:36:34.485Z,0.00
2019-02-09T02:37:34.477Z,0.00
2019-02-09T02:38:34.468Z,0.00
2019-02-09T02:39:34.467Z,0.00
2019-02-09T02:40:34.472Z,0.00
2019-02-09T02:41:34.442Z,0.00
2019-02-09T02:42:34.422Z,0.00
2019-02-09T02:43:34.446Z,0.00
2019-02-09T02:44:34.395Z,0.00
2019-02-09T02:45:34.397Z,0.00
2019-02-09T02:46:34.404Z,0.00
2019-02-09T02:47:34.394Z,0.00
2019-02-09T02:48:34.354Z,0.00
2019-02-09T02:49:34.399Z,0.00
2019-02-09T02:50:34.335Z,0.00
2019-02-09T02:51:34.416Z,0.00
2019-02-09T02:52:34.323Z,0.00
2019-02-09T02:53:34.296Z,0.00
2019-02-09T02:54:34.294Z,0.00
2019-02-09T02:55:34.287Z,0.00
2019-02-09T02:56:34.291Z,0.00
2019-02-09T02:57:34.275Z,0.00
2019-02-09T02:58:34.257Z,0.00
2019-02-09T02:59:34.240Z,0.00
2019-02-09T03:00:34.222Z,0.00
2019-02-09T03:01:34.278Z,0.00
2019-02-09T03:02:34.236Z,0.00
2019-02-09T03:03:34.199Z,0.00
2019-02-09T03:04:34.196Z,0.00
2019-02-09T03:05:34.191Z,0.00
2019-02-09T03:06:34.184Z,0.00
2019-02-09T03:07:34.172Z,0.00
2019-02-09T03:08:34.150Z,0.00
2019-02-09T03:09:34.152Z,0.00
2019-02-09T03:10:34.123Z,0.00
2019-02-09T03:11:34.184Z,0.00
2019-02-09T03:12:34.109Z,0.00
2019-02-09T03:13:34.124Z,0.00
2019-02-09T03:14:34.100Z,0.00
2019-02-09T03:15:34.090Z,0.00
2019-02-09T03:16:34.090Z,0.00
2019-02-09T03:17:34.120Z,0.00
2019-02-09T03:18:34.034Z,0.00
2019-02-09T03:19:34.043Z,0.00
2019-02-09T03:20:34.034Z,0.00
2019-02-09T03:21:34.027Z,0.00
2019-02-09T03:22:34.040Z,0.00
2019-02-09T03:23:34.011Z,0.00
2019-02-09T03:24:34.075Z,0.00
2019-02-09T03:25:33.974Z,0.00
2019-02-09T03:26:33.974Z,0.00
2019-02-09T03:27:33.955Z,0.00
2019-02-09T03:28:33.940Z,0.00
2019-02-09T03:29:33.931Z,0.00
2019-02-09T03:30:47.063Z,0.00
2019-02-09T03:31:34.946Z,0.00
2019-02-09T03:32:33.915Z,0.00
2019-02-09T03:33:33.901Z,0.00
2019-02-09T03:34:33.865Z,0.00
2019-02-09T03:35:33.879Z,0.00
2019-02-09T03:36:33.857Z,0.00
2019-02-09T03:37:33.849Z,0.00
2019-02-09T03:38:33.880Z,0.00
2019-02-09T03:39:33.852Z,0.00
2019-02-09T03:40:33.809Z,0.00
2019-02-09T03:41:33.807Z,0.00
2019-02-09T03:42:33.808Z,0.00
2019-02-09T03:43:33.798Z,0.00
2019-02-09T03:44:33.781Z,0.00
2019-02-09T03:45:33.778Z,0.00
2019-02-09T03:46:33.745Z,0.00
2019-02-09T03:47:33.759Z,0.00
2019-02-09T03:48:33.753Z,0.00
2019-02-09T03:49:33.758Z,0.00
2019-02-09T03:50:33.713Z,0.00
2019-02-09T03:51:33.696Z,0.00
2019-02-09T03:52:33.684Z,0.00
2019-02-09T03:53:33.677Z,0.00
2019-02-09T03:54:33.659Z,0.00
2019-02-09T03:55:33.754Z,0.00
2019-02-09T03:56:33.638Z,0.00
2019-02-09T03:57:33.617Z,0.00
2019-02-09T03:58:33.609Z,0.00
2019-02-09T03:59:33.627Z,0.00
2019-02-09T04:00:33.774Z,0.00
2019-02-09T04:01:33.578Z,0.00
2019-02-09T04:02:33.592Z,0.00
2019-02-09T04:03:33.556Z,0.00
2019-02-09T04:04:33.603Z,0.00
2019-02-09T04:05:33.608Z,0.00
2019-02-09T04:06:33.575Z,0.00
2019-02-09T04:07:33.553Z,0.00
2019-02-09T04:08:33.516Z,0.00
2019-02-09T04:09:33.500Z,0.00
2019-02-09T04:10:33.528Z,0.00
2019-02-09T04:11:33.501Z,0.00
2019-02-09T04:12:33.513Z,0.00
2019-02-09T04:13:33.472Z,0.00
2019-02-09T04:14:33.449Z,0.00
2019-02-09T04:15:33.449Z,0.00
2019-02-09T04:16:33.443Z,0.00
2019-02-09T04:17:33.422Z,0.00
2019-02-09T04:18:33.419Z,0.00
2019-02-09T04:19:33.410Z,0.00
2019-02-09T04:20:33.369Z,0.00
2019-02-09T04:21:33.395Z,0.00
2019-02-09T04:22:33.379Z,0.00
2019-02-09T04:23:33.369Z,0.00
2019-02-09T04:24:33.337Z,0.00
2019-02-09T04:25:33.419Z,0.00
2019-02-09T04:26:33.301Z,0.00
2019-02-09T04:27:33.489Z,0.00
2019-02-09T04:28:33.382Z,0.00
2019-02-09T04:29:33.398Z,0.00
2019-02-09T04:30:33.289Z,0.00
2019-02-09T04:31:33.360Z,0.00
2019-02-09T04:32:33.303Z,0.00
2019-02-09T04:33:33.251Z,0.00
2019-02-09T04:34:33.231Z,0.00
2019-02-09T04:35:33.337Z,0.00
2019-02-09T04:36:33.296Z,0.00
2019-02-09T04:37:33.218Z,0.00
2019-02-09T04:38:33.174Z,0.00
2019-02-09T04:39:33.189Z,0.00
2019-02-09T04:40:33.160Z,0.00
2019-02-09T04:41:33.152Z,0.00
2019-02-09T04:42:33.214Z,0.00
2019-02-09T04:43:34.748Z,0.00
2019-02-09T04:44:33.163Z,0.00
2019-02-09T04:45:33.106Z,0.00
2019-02-09T04:46:41.175Z,0.00
2019-02-09T04:47:33.069Z,0.00
2019-02-09T04:48:33.087Z,0.00
2019-02-09T04:49:33.049Z,0.00
2019-02-09T04:50:33.044Z,0.00
2019-02-09T04:51:33.035Z,0.00
2019-02-09T04:52:33.023Z,0.00
2019-02-09T04:53:33.009Z,0.00
2019-02-09T04:54:33.024Z,0.00
2019-02-09T04:55:32.985Z,0.00
2019-02-09T04:56:33.004Z,0.00
2019-02-09T04:57:32.982Z,0.00
2019-02-09T04:58:32.975Z,0.00
2019-02-09T04:59:32.944Z,0.00
2019-02-09T05:00:32.938Z,0.00
2019-02-09T05:01:32.917Z,0.00
2019-02-09T05:02:32.905Z,0.00
2019-02-09T05:03:32.922Z,0.00
2019-02-09T05:04:32.896Z,0.00
2019-02-09T05:05:32.884Z,0.00
2019-02-09T05:06:32.877Z,0.00
2019-02-09T05:07:32.881Z,0.00
2019-02-09T05:08:32.905Z,0.00
2019-02-09T05:09:32.832Z,0.00
2019-02-09T05:10:32.826Z,0.00
2019-02-09T05:11:32.849Z,0.00
2019-02-09T05:12:32.807Z,0.00
2019-02-09T05:13:32.796Z,0.00
2019-02-09T05:14:32.820Z,0.00
2019-02-09T05:15:32.805Z,0.00
2019-02-09T05:16:32.759Z,0.00
2019-02-09T05:17:32.779Z,0.00
2019-02-09T05:18:32.754Z,0.00
2019-02-09T05:19:32.725Z,0.00
2019-02-09T05:20:32.716Z,0.00
2019-02-09T05:21:32.700Z,0.00
2019-02-09T05:22:32.732Z,0.00
2019-02-09T05:23:32.706Z,0.00
2019-02-09T05:24:32.674Z,0.00
2019-02-09T05:25:32.715Z,0.00
2019-02-09T05:26:32.657Z,0.00
2019-02-09T05:27:32.636Z,0.00
2019-02-09T05:28:32.649Z,0.00
2019-02-09T05:29:32.614Z,0.00
2019-02-09T05:30:32.613Z,0.00
2019-02-09T05:31:32.605Z,0.00
2019-02-09T05:32:32.589Z,0.00
2019-02-09T05:33:32.593Z,0.00
2019-02-09T05:34:32.559Z,0.00
2019-02-09T05:35:32.559Z,0.00
2019-02-09T05:36:32.549Z,0.00
2019-02-09T05:37:32.542Z,0.00
2019-02-09T05:38:32.549Z,0.00
2019-02-09T05:39:33.818Z,0.00
2019-02-09T05:40:32.493Z,0.00
2019-02-09T05:41:32.507Z,0.00
2019-02-09T05:42:32.472Z,0.00
2019-02-09T05:43:32.480Z,0.00
2019-02-09T05:44:32.481Z,0.00
2019-02-09T05:45:32.447Z,0.00
2019-02-09T05:46:32.435Z,0.00
2019-02-09T05:47:32.428Z,0.00
2019-02-09T05:48:32.443Z,0.00
2019-02-09T05:49:32.405Z,0.00
2019-02-09T05:50:32.398Z,0.00
2019-02-09T05:51:32.430Z,0.00
2019-02-09T05:52:32.395Z,0.00
2019-02-09T05:53:32.366Z,0.00
2019-02-09T05:54:32.348Z,0.00
2019-02-09T05:55:32.358Z,0.00
2019-02-09T05:56:32.331Z,0.00
2019-02-09T05:57:32.321Z,0.00
2019-02-09T05:58:32.306Z,0.00
2019-02-09T05:59:32.287Z,0.00
2019-02-09T06:00:32.302Z,0.00
2019-02-09T06:01:32.745Z,0.00
2019-02-09T06:02:32.258Z,0.00
2019-02-09T06:03:32.253Z,0.00
2019-02-09T06:04:32.263Z,0.00
2019-02-09T06:05:32.248Z,0.00
2019-02-09T06:06:32.253Z,0.00
2019-02-09T06:07:32.213Z,0.00
2019-02-09T06:08:32.199Z,0.00
2019-02-09T06:09:32.187Z,0.00
2019-02-09T06:10:32.197Z,0.00
2019-02-09T06:11:32.164Z,0.00
2019-02-09T06:12:32.148Z,0.00
2019-02-09T06:13:32.138Z,0.00
2019-02-09T06:14:32.139Z,0.00
2019-02-09T06:15:32.142Z,0.00
2019-02-09T06:16:32.117Z,0.00
2019-02-09T06:17:32.099Z,0.00
2019-02-09T06:18:32.093Z,0.00
2019-02-09T06:19:32.074Z,0.00
2019-02-09T06:20:32.081Z,0.00
2019-02-09T06:21:32.064Z,0.00
2019-02-09T06:22:32.052Z,0.00
2019-02-09T06:23:32.034Z,0.00
2019-02-09T06:24:32.017Z,0.00
2019-02-09T06:25:32.047Z,0.00
2019-02-09T06:26:32.010Z,0.00
2019-02-09T06:27:31.992Z,0.00
2019-02-09T06:28:31.981Z,0.00
2019-02-09T06:29:31.974Z,0.00
2019-02-09T06:30:31.962Z,0.00
2019-02-09T06:31:40.284Z,0.00
2019-02-09T06:32:32.953Z,0.00
2019-02-09T06:33:31.946Z,0.00
2019-02-09T06:34:31.909Z,0.00
2019-02-09T06:35:31.911Z,0.00
2019-02-09T06:36:31.923Z,0.00
2019-02-09T06:37:31.877Z,0.00
2019-02-09T06:38:31.869Z,0.00
2019-02-09T06:39:31.863Z,0.00
2019-02-09T06:40:31.852Z,0.00
2019-02-09T06:41:31.846Z,0.00
2019-02-09T06:42:31.852Z,0.00
2019-02-09T06:43:31.816Z,0.00
2019-02-09T06:44:31.818Z,0.00
2019-02-09T06:45:31.792Z,0.00
2019-02-09T06:46:31.784Z,0.00
2019-02-09T06:47:31.813Z,0.00
2019-02-09T06:48:31.767Z,0.00
2019-02-09T06:49:31.757Z,0.00
2019-02-09T06:50:31.747Z,0.00
2019-02-09T06:51:31.738Z,0.00
2019-02-09T06:52:31.717Z,0.00
2019-02-09T06:53:31.738Z,0.00
2019-02-09T06:54:31.707Z,5.62
2019-02-09T06:55:31.686Z,5.62
2019-02-09T06:56:31.680Z,5.62
2019-02-09T06:57:31.669Z,5.62
2019-02-09T06:58:31.672Z,5.62
2019-02-09T06:59:31.651Z,5.62
2019-02-09T07:00:31.640Z,5.62
2019-02-09T07:01:31.627Z,5.62
2019-02-09T07:02:31.625Z,5.62
2019-02-09T07:03:31.640Z,5.62
2019-02-09T07:04:31.589Z,5.62
2019-02-09T07:05:31.588Z,5.62
2019-02-09T07:06:31.567Z,5.62
2019-02-09T07:07:31.571Z,11.25
2019-02-09T07:08:31.575Z,11.25
2019-02-09T07:09:31.560Z,11.25
2019-02-09T07:10:31.527Z,11.25
2019-02-09T07:11:31.519Z,5.62
2019-02-09T07:12:31.508Z,11.25
2019-02-09T07:13:31.521Z,5.62
2019-02-09T07:14:31.518Z,5.62
2019-02-09T07:15:31.490Z,11.25
2019-02-09T07:16:31.464Z,5.62
2019-02-09T07:17:31.452Z,5.62
2019-02-09T07:18:31.441Z,5.62
2019-02-09T07:19:31.455Z,5.62
2019-02-09T07:20:31.423Z,5.62
2019-02-09T07:21:31.411Z,5.62
2019-02-09T07:22:31.415Z,5.62
2019-02-09T07:23:31.392Z,5.62
2019-02-09T07:24:31.426Z,5.62
2019-02-09T07:25:31.424Z,5.62
2019-02-09T07:26:31.369Z,5.62
2019-02-09T07:27:31.339Z,11.25
2019-02-09T07:28:31.327Z,11.25
2019-02-09T07:29:31.360Z,11.25
2019-02-09T07:30:31.309Z,11.25
2019-02-09T07:31:31.302Z,11.25
2019-02-09T07:32:31.338Z,11.25
2019-02-09T07:33:31.296Z,11.25
2019-02-09T07:34:31.270Z,16.88
2019-02-09T07:35:31.299Z,16.88
2019-02-09T07:36:31.252Z,22.50
2019-02-09T07:37:31.233Z,28.12
2019-02-09T07:38:31.223Z,28.12
2019-02-09T07:39:31.216Z,28.12
2019-02-09T07:40:31.238Z,28.12
2019-02-09T07:41:31.192Z,28.12
2019-02-09T07:42:32.132Z,16.88
2019-02-09T07:43:31.175Z,16.88
2019-02-09T07:44:31.170Z,16.88
2019-02-09T07:45:31.185Z,16.88
2019-02-09T07:46:31.146Z,16.88
2019-02-09T07:47:31.137Z,11.25
2019-02-09T07:48:31.117Z,11.25
2019-02-09T07:49:31.106Z,11.25
2019-02-09T07:50:31.102Z,11.25
2019-02-09T07:51:31.121Z,11.25
2019-02-09T07:52:31.133Z,16.88
2019-02-09T07:53:31.067Z,11.25
2019-02-09T07:54:31.062Z,11.25
2019-02-09T07:55:31.050Z,11.25
2019-02-09T07:56:31.028Z,11.25
2019-02-09T07:57:31.047Z,5.62
2019-02-09T07:58:31.023Z,11.25
2019-02-09T07:59:30.997Z,11.25
2019-02-09T08:00:31.030Z,22.50
2019-02-09T08:01:31.020Z,28.12
2019-02-09T08:02:30.962Z,16.88
2019-02-09T08:03:30.981Z,16.88
2019-02-09T08:04:30.953Z,16.88
2019-02-09T08:05:30.940Z,11.25
2019-02-09T08:06:30.925Z,11.25
2019-02-09T08:07:30.910Z,11.25
2019-02-09T08:08:30.927Z,11.25
2019-02-09T08:09:30.889Z,11.25
2019-02-09T08:10:30.878Z,11.25
2019-02-09T08:11:30.872Z,11.25
2019-02-09T08:12:30.871Z,11.25
2019-02-09T08:13:30.911Z,11.25
2019-02-09T08:14:30.837Z,5.62
2019-02-09T08:15:30.827Z,5.62
2019-02-09T08:16:30.818Z,5.62
2019-02-09T08:17:30.805Z,11.25
2019-02-09T08:18:30.809Z,11.25
2019-02-09T08:19:30.817Z,22.50
2019-02-09T08:20:30.770Z,50.62
2019-02-09T08:21:30.758Z,84.38
2019-02-09T08:22:30.743Z,78.75
2019-02-09T08:23:30.740Z,56.25
2019-02-09T08:24:30.734Z,61.88
2019-02-09T08:25:30.742Z,73.12
2019-02-09T08:26:30.710Z,73.12
2019-02-09T08:27:30.741Z,73.12
2019-02-09T08:28:30.683Z,73.12
2019-02-09T08:29:30.699Z,78.75
2019-02-09T08:30:30.689Z,73.12
2019-02-09T08:31:30.652Z,61.88
2019-02-09T08:32:30.679Z,73.12
2019-02-09T08:33:30.651Z,84.38
2019-02-09T08:34:30.660Z,101.25
2019-02-09T08:35:30.613Z,112.50
2019-02-09T08:36:30.605Z,106.88
2019-02-09T08:37:30.594Z,95.62
2019-02-09T08:38:30.685Z,95.62
2019-02-09T08:39:30.603Z,101.25
2019-02-09T08:40:30.622Z,95.62
2019-02-09T08:41:30.718Z,73.12
2019-02-09T08:42:30.563Z,78.75
2019-02-09T08:43:30.690Z,78.75
2019-02-09T08:44:30.678Z,84.38
2019-02-09T08:45:30.520Z,95.62
2019-02-09T08:46:30.491Z,90.00
2019-02-09T08:47:30.548Z,78.75
2019-02-09T08:48:30.520Z,61.88
2019-02-09T08:49:30.545Z,50.62
2019-02-09T08:50:30.498Z,45.00
2019-02-09T08:51:30.523Z,39.38
2019-02-09T08:52:30.458Z,39.38
2019-02-09T08:53:30.465Z,39.38
2019-02-09T08:54:30.440Z,39.38
2019-02-09T08:55:30.464Z,50.62
2019-02-09T08:56:30.491Z,61.88
2019-02-09T08:57:30.428Z,61.88
2019-02-09T08:58:30.434Z,73.12
2019-02-09T08:59:30.390Z,78.75
2019-02-09T09:00:30.556Z,95.62
2019-02-09T09:01:30.386Z,106.88
2019-02-09T09:02:30.369Z,123.75
2019-02-09T09:03:30.352Z,146.25
2019-02-09T09:04:30.391Z,185.62
2019-02-09T09:05:30.299Z,309.38
2019-02-09T09:06:30.330Z,1057.50
2019-02-09T09:07:30.371Z,1226.25
2019-02-09T09:08:30.369Z,1220.62
2019-02-09T09:09:30.299Z,1198.12
2019-02-09T09:10:30.285Z,1181.25
2019-02-09T09:11:30.369Z,1141.88
2019-02-09T09:12:30.278Z,900.00
2019-02-09T09:13:30.265Z,590.62
2019-02-09T09:14:30.298Z,731.25
2019-02-09T09:15:30.299Z,765.00
2019-02-09T09:16:30.343Z,793.12
2019-02-09T09:17:30.223Z,956.25
2019-02-09T09:18:30.202Z,1113.75
2019-02-09T09:19:30.198Z,1136.25
2019-02-09T09:20:30.204Z,1102.50
2019-02-09T09:21:30.223Z,1136.25
2019-02-09T09:22:30.191Z,1192.50
2019-02-09T09:23:30.367Z,1153.12
2019-02-09T09:24:30.107Z,1170.00
2019-02-09T09:25:30.112Z,1040.62
2019-02-09T09:26:30.127Z,1051.88
2019-02-09T09:27:30.122Z,950.62
2019-02-09T09:28:30.095Z,984.38
2019-02-09T09:29:30.056Z,1046.25
2019-02-09T09:30:30.086Z,1051.88
2019-02-09T09:31:30.031Z,945.00
2019-02-09T09:32:30.034Z,708.75
2019-02-09T09:33:30.071Z,804.38
2019-02-09T09:34:29.988Z,871.88
2019-02-09T09:35:29.970Z,517.50
2019-02-09T09:36:29.965Z,478.12
2019-02-09T09:37:29.984Z,421.88
2019-02-09T09:38:29.942Z,393.75
2019-02-09T09:39:29.926Z,466.88
2019-02-09T09:40:30.001Z,596.25
2019-02-09T09:41:29.954Z,371.25
2019-02-09T09:42:29.903Z,427.50
2019-02-09T09:43:29.907Z,461.25
2019-02-09T09:44:29.930Z,343.12
2019-02-09T09:45:29.955Z,258.75
2019-02-09T09:46:29.911Z,258.75
2019-02-09T09:47:29.920Z,253.12
2019-02-09T09:48:29.891Z,331.88
2019-02-09T09:49:29.848Z,360.00
2019-02-09T09:50:29.809Z,444.38
2019-02-09T09:51:29.840Z,489.38
2019-02-09T09:52:29.794Z,472.50
2019-02-09T09:53:29.822Z,956.25
2019-02-09T09:54:29.888Z,219.38
2019-02-09T09:55:29.798Z,669.38
2019-02-09T09:56:29.807Z,1496.25
2019-02-09T09:57:29.779Z,1603.12
2019-02-09T09:58:29.745Z,1288.12
2019-02-09T09:59:29.745Z,748.12
2019-02-09T10:00:29.801Z,433.12
2019-02-09T10:01:29.757Z,1935.00
2019-02-09T10:02:36.456Z,1676.25
2019-02-09T10:03:30.931Z,1833.75
2019-02-09T10:04:29.674Z,1850.62
2019-02-09T10:05:29.715Z,1816.88
2019-02-09T10:06:29.905Z,1833.75
2019-02-09T10:07:29.649Z,1777.50
2019-02-09T10:08:29.651Z,1080.00
2019-02-09T10:09:29.638Z,393.75
2019-02-09T10:10:29.653Z,1113.75
2019-02-09T10:11:29.656Z,1321.88
2019-02-09T10:12:29.633Z,1192.50
2019-02-09T10:13:29.589Z,1080.00
2019-02-09T10:14:29.560Z,950.62
2019-02-09T10:15:29.573Z,1040.62
2019-02-09T10:16:29.558Z,1091.25
2019-02-09T10:17:29.522Z,1153.12
2019-02-09T10:18:29.507Z,1271.25
2019-02-09T10:19:29.500Z,821.25
2019-02-09T10:20:29.490Z,568.12
2019-02-09T10:21:29.499Z,860.62
2019-02-09T10:22:29.583Z,393.75
2019-02-09T10:23:29.482Z,388.12
2019-02-09T10:24:29.455Z,343.12
2019-02-09T10:25:29.442Z,410.62
2019-02-09T10:26:29.442Z,421.88
2019-02-09T10:27:29.506Z,219.38
2019-02-09T10:28:29.487Z,433.12
2019-02-09T10:29:29.580Z,410.62
2019-02-09T10:30:29.381Z,399.38
2019-02-09T10:31:29.374Z,376.88
2019-02-09T10:32:29.371Z,393.75
2019-02-09T10:33:29.380Z,140.62
2019-02-09T10:34:29.347Z,331.88
2019-02-09T10:35:29.327Z,371.25
2019-02-09T10:36:29.315Z,399.38
2019-02-09T10:37:29.306Z,163.12
2019-02-09T10:38:29.320Z,337.50
2019-02-09T10:39:29.386Z,219.38
2019-02-09T10:40:29.274Z,405.00
2019-02-09T10:41:29.478Z,388.12
2019-02-09T10:42:29.347Z,376.88
2019-02-09T10:43:29.276Z,337.50
2019-02-09T10:44:29.248Z,331.88
2019-02-09T10:45:29.827Z,331.88
2019-02-09T10:46:29.313Z,326.25
2019-02-09T10:47:29.401Z,309.38
2019-02-09T10:48:29.272Z,298.12
2019-02-09T10:49:29.178Z,309.38
2019-02-09T10:50:29.167Z,331.88
2019-02-09T10:51:29.226Z,315.00
2019-02-09T10:52:29.240Z,337.50
2019-02-09T10:53:29.219Z,326.25
2019-02-09T10:54:29.130Z,331.88
2019-02-09T10:55:29.177Z,180.00
2019-02-09T10:56:29.152Z,382.50
2019-02-09T10:57:29.130Z,185.62
2019-02-09T10:58:29.193Z,264.38
2019-02-09T10:59:29.304Z,241.88
2019-02-09T11:00:29.152Z,309.38
2019-02-09T11:01:29.145Z,337.50
2019-02-09T11:02:29.116Z,309.38
2019-02-09T11:03:29.123Z,326.25
2019-02-09T11:04:29.139Z,185.62
2019-02-09T11:05:29.187Z,331.88
2019-02-09T11:06:29.039Z,180.00
2019-02-09T11:07:29.002Z,196.88
2019-02-09T11:08:29.047Z,303.75
2019-02-09T11:09:29.129Z,213.75
2019-02-09T11:10:28.975Z,196.88
2019-02-09T11:11:28.946Z,225.00
2019-02-09T11:12:28.959Z,225.00
2019-02-09T11:13:28.957Z,185.62
2019-02-09T11:14:28.995Z,202.50
2019-02-09T11:15:28.908Z,208.12
2019-02-09T11:16:28.891Z,180.00
2019-02-09T11:17:28.927Z,185.62
2019-02-09T11:18:28.877Z,270.00
2019-02-09T11:19:28.877Z,275.62
2019-02-09T11:20:28.841Z,337.50
2019-02-09T11:21:28.944Z,286.88
2019-02-09T11:22:28.826Z,180.00
2019-02-09T11:23:29.042Z,180.00
2019-02-09T11:24:29.025Z,140.62
2019-02-09T11:25:28.823Z,123.75
2019-02-09T11:26:28.856Z,135.00
2019-02-09T11:27:28.779Z,157.50
2019-02-09T11:28:28.811Z,135.00
2019-02-09T11:29:28.777Z,180.00
2019-02-09T11:30:29.435Z,253.12
2019-02-09T11:31:28.788Z,253.12
2019-02-09T11:32:28.715Z,151.88
2019-02-09T11:33:28.703Z,241.88
2019-02-09T11:34:28.723Z,241.88
2019-02-09T11:35:28.692Z,196.88
2019-02-09T11:36:28.674Z,146.25
2019-02-09T11:37:28.670Z,163.12
2019-02-09T11:38:28.658Z,225.00
2019-02-09T11:39:28.675Z,303.75
2019-02-09T11:40:28.627Z,196.88
2019-02-09T11:41:28.627Z,163.12
2019-02-09T11:42:28.631Z,191.25
2019-02-09T11:43:29.020Z,196.88
2019-02-09T11:44:28.580Z,236.25
2019-02-09T11:45:28.590Z,270.00
2019-02-09T11:46:28.557Z,219.38
2019-02-09T11:47:28.553Z,168.75
2019-02-09T11:48:28.542Z,112.50
2019-02-09T11:49:28.532Z,129.38
2019-02-09T11:50:28.554Z,106.88
2019-02-09T11:51:28.529Z,163.12
2019-02-09T11:52:28.494Z,118.12
2019-02-09T11:53:28.485Z,84.38
2019-02-09T11:54:28.473Z,78.75
2019-02-09T11:55:28.469Z,101.25
2019-02-09T11:56:28.483Z,174.38
2019-02-09T11:57:28.525Z,208.12
2019-02-09T11:58:28.433Z,185.62
2019-02-09T11:59:28.423Z,230.62
2019-02-09T12:00:28.416Z,275.62
2019-02-09T12:01:28.485Z,275.62
2019-02-09T12:02:28.392Z,191.25
2019-02-09T12:03:29.111Z,202.50
2019-02-09T12:04:28.364Z,180.00
2019-02-09T12:05:28.357Z,174.38
2019-02-09T12:06:28.365Z,247.50
2019-02-09T12:07:28.397Z,236.25
2019-02-09T12:08:28.333Z,180.00
2019-02-09T12:09:28.339Z,174.38
2019-02-09T12:10:28.417Z,281.25
2019-02-09T12:11:29.040Z,241.88
2019-02-09T12:12:28.343Z,180.00
2019-02-09T12:13:28.378Z,157.50
2019-02-09T12:14:28.379Z,168.75
2019-02-09T12:15:28.285Z,185.62
2019-02-09T12:16:28.335Z,151.88
2019-02-09T12:17:28.270Z,135.00
2019-02-09T12:18:28.261Z,123.75
2019-02-09T12:19:28.265Z,135.00
2019-02-09T12:20:28.282Z,112.50
2019-02-09T12:21:28.269Z,90.00
2019-02-09T12:22:28.851Z,78.75
2019-02-09T12:23:28.368Z,95.62
2019-02-09T12:24:28.170Z,118.12
2019-02-09T12:25:28.157Z,129.38
2019-02-09T12:26:28.170Z,90.00
2019-02-09T12:27:28.177Z,101.25
2019-02-09T12:28:28.174Z,90.00
2019-02-09T12:29:28.201Z,90.00
2019-02-09T12:30:28.152Z,95.62
2019-02-09T12:31:28.095Z,67.50
2019-02-09T12:32:28.200Z,67.50
2019-02-09T12:33:28.111Z,73.12
2019-02-09T12:34:28.085Z,67.50
2019-02-09T12:35:28.086Z,90.00
2019-02-09T12:36:28.094Z,101.25
2019-02-09T12:37:28.066Z,106.88
2019-02-09T12:38:28.048Z,90.00
2019-02-09T12:39:28.057Z,90.00
2019-02-09T12:40:28.020Z,101.25
2019-02-09T12:41:28.049Z,84.38
2019-02-09T12:42:27.977Z,78.75
2019-02-09T12:43:27.990Z,174.38
2019-02-09T12:44:27.940Z,112.50
2019-02-09T12:45:27.978Z,84.38
2019-02-09T12:46:27.937Z,95.62
2019-02-09T12:47:27.983Z,123.75
2019-02-09T12:48:27.967Z,95.62
2019-02-09T12:49:27.931Z,73.12
2019-02-09T12:50:27.903Z,67.50
2019-02-09T12:51:27.903Z,78.75
2019-02-09T12:52:27.883Z,185.62
2019-02-09T12:53:27.853Z,84.38
2019-02-09T12:54:27.906Z,78.75
2019-02-09T12:55:27.837Z,157.50
2019-02-09T12:56:27.848Z,230.62
2019-02-09T12:57:27.808Z,298.12
2019-02-09T12:58:27.798Z,275.62